Time;durP1;ratioP1;P1;durP2;ratioP2;P2;SDS_P1;SDS_P2;PMS_P1;PMS_P2;Temp;Humidity;BMP_temperature;BMP_pressure;BME280_temperature;BME280_humidity;BME280_pressure;Samples;Min_cycle;Max_cycle;Signal;HPM_P1;HPM_P2
2022/12/29 00:01:11;;;;;;;33.58;28.23;;;11.50;84.50;;;;;;10920473;32;20404;-73
2022/12/29 00:07:13;;;;;;;36.10;28.15;;;11.70;84.20;;;;;;10942147;32;20041;-73
2022/12/29 00:45:04;;;;;;;34.58;26.83;;;11.80;83.60;;;;;;10941297;32;20016;-73
2022/12/29 00:51:07;;;;;;;32.85;27.17;;;11.80;84.00;;;;;;10940928;32;20089;-73
2022/12/29 00:57:10;;;;;;;26.98;23.20;;;11.70;83.80;;;;;;10938926;32;20015;-73
2022/12/29 01:03:12;;;;;;;33.53;28.87;;;11.90;84.50;;;;;;10941010;32;20081;-73
2022/12/29 01:15:35;;;;;;;29.67;23.42;;;11.70;84.70;;;;;;10926796;32;20039;-73
2022/12/29 01:21:37;;;;;;;33.40;26.08;;;11.60;84.60;;;;;;10940638;32;20023;-73
2022/12/29 01:27:39;;;;;;;27.02;23.98;;;11.30;84.80;;;;;;10940677;32;20019;-73
2022/12/29 01:33:42;;;;;;;34.53;30.75;;;11.40;84.90;;;;;;10940681;32;20019;-73
2022/12/29 01:39:44;;;;;;;31.87;26.05;;;11.40;85.00;;;;;;10947315;32;20022;-73
2022/12/29 01:45:51;;;;;;;28.70;24.87;;;11.50;84.50;;;;;;10933342;32;20025;-73
2022/12/29 01:52:07;;;;;;;33.03;25.42;;;11.30;84.40;;;;;;10933425;32;20027;-73
2022/12/29 01:58:13;;;;;;;39.88;30.35;;;11.20;84.70;;;;;;10947232;32;20019;-73
2022/12/29 02:04:15;;;;;;;29.20;24.00;;;11.30;84.60;;;;;;10946525;32;20026;-73
2022/12/29 02:10:21;;;;;;;23.75;20.65;;;11.30;84.40;;;;;;10946265;32;20047;-73
2022/12/29 02:16:56;;;;;;;30.15;23.70;;;11.30;84.20;;;;;;10945834;32;20053;-73
2022/12/29 02:23:36;;;;;;;34.55;26.83;;;11.00;84.40;;;;;;10945728;32;20026;-73
2022/12/29 02:29:53;;;;;;;;;;;11.00;84.80;;;;;;10945988;32;20030;-73
2022/12/29 02:36:30;;;;;;;42.00;31.27;;;11.20;84.70;;;;;;10931415;32;20315;-73
2022/12/29 02:42:38;;;;;;;37.00;29.67;;;11.00;84.90;;;;;;10941481;32;20051;-73
2022/12/29 02:48:51;;;;;;;35.38;28.55;;;11.10;84.80;;;;;;10944828;32;20053;-73
2022/12/29 02:54:54;;;;;;;31.17;24.45;;;11.20;84.50;;;;;;10944742;32;20062;-74
2022/12/29 03:01:16;;;;;;;30.20;25.25;;;11.30;84.70;;;;;;10930336;32;20463;-74
2022/12/29 03:08:06;;;;;;;28.58;22.17;;;11.30;84.40;;;;;;10944329;32;20398;-74
2022/12/29 03:20:47;;;;;;;27.45;22.45;;;10.90;85.10;;;;;;10943731;32;20058;-74
2022/12/29 03:26:51;;;;;;;23.42;19.27;;;11.00;85.00;;;;;;10943413;32;20041;-75
2022/12/29 03:33:00;;;;;;;30.23;22.87;;;11.00;84.70;;;;;;10943255;32;20041;-74
2022/12/29 03:39:21;;;;;;;29.85;24.67;;;11.20;84.50;;;;;;10929301;32;20108;-75
2022/12/29 03:45:24;;;;;;;41.78;35.13;;;11.30;85.10;;;;;;10942990;32;20019;-74
2022/12/29 03:51:26;;;;;;;33.33;26.85;;;11.30;85.10;;;;;;10942590;32;20344;-75
2022/12/29 03:57:29;;;;;;;44.47;32.78;;;11.30;85.00;;;;;;10942108;32;20045;-75
2022/12/29 04:03:31;;;;;;;25.30;22.30;;;11.30;84.80;;;;;;10942274;32;20037;-74
2022/12/29 04:09:33;;;;;;;28.00;22.10;;;11.20;84.60;;;;;;10942163;32;20023;-74
2022/12/29 04:15:36;;;;;;;20.33;17.55;;;10.90;84.90;;;;;;10942010;32;20061;-75
2022/12/29 04:21:38;;;;;;;27.02;22.80;;;10.80;85.20;;;;;;10941370;32;20065;-74
2022/12/29 04:27:40;;;;;;;27.50;21.58;;;11.00;85.40;;;;;;10928360;32;20359;-74
2022/12/29 04:33:43;;;;;;;23.50;19.62;;;11.10;85.40;;;;;;10941568;32;20074;-74
2022/12/29 04:39:45;;;;;;;19.52;15.55;;;10.80;85.40;;;;;;10941491;32;20362;-74
2022/12/29 04:45:47;;;;;;;36.20;29.95;;;10.50;85.90;;;;;;10941348;32;20018;-74
2022/12/29 04:51:50;;;;;;;26.12;21.70;;;10.50;86.20;;;;;;10941289;32;20385;-74
2022/12/29 04:57:53;;;;;;;26.98;21.48;;;10.70;85.90;;;;;;10941177;32;20031;-74
2022/12/29 05:03:55;;;;;;;32.75;27.13;;;10.90;85.70;;;;;;10941075;32;20325;-75
2022/12/29 05:09:58;;;;;;;30.35;22.08;;;11.00;85.50;;;;;;10924638;32;20039;-74
2022/12/29 05:16:01;;;;;;;23.77;19.65;;;11.00;85.30;;;;;;10948106;32;20054;-74
2022/12/29 05:22:03;;;;;;;24.10;19.35;;;11.00;85.50;;;;;;10943742;32;20085;-74
2022/12/29 05:28:06;;;;;;;23.67;21.17;;;10.90;85.40;;;;;;10947728;32;20018;-74
2022/12/29 05:34:13;;;;;;;16.75;14.57;;;11.00;85.60;;;;;;10934390;32;20041;-74
2022/12/29 05:40:15;;;;;;;22.30;17.35;;;10.90;85.50;;;;;;10944750;32;20019;-74
2022/12/29 05:46:17;;;;;;;17.80;15.50;;;10.60;85.80;;;;;;10947213;32;20058;-74
2022/12/29 05:52:20;;;;;;;18.58;14.98;;;10.40;86.10;;;;;;10932890;32;20053;-74
2022/12/29 05:58:22;;;;;;;22.42;17.40;;;10.60;86.50;;;;;;10929542;32;20029;-75
2022/12/29 06:04:23;;;;;;;23.15;18.12;;;10.80;86.30;;;;;;10946120;32;20054;-75
2022/12/29 06:10:25;;;;;;;19.70;15.52;;;10.70;86.20;;;;;;10932027;32;20385;-75
2022/12/29 06:16:28;;;;;;;19.25;15.07;;;10.80;86.00;;;;;;10946038;32;20329;-75
2022/12/29 06:22:31;;;;;;;18.92;14.43;;;10.70;86.00;;;;;;10941473;32;20023;-75
2022/12/29 06:28:33;;;;;;;22.75;17.58;;;10.70;86.10;;;;;;10945612;32;20047;-75
2022/12/29 06:34:36;;;;;;;22.67;18.73;;;10.80;86.00;;;;;;10942923;32;20061;-75
2022/12/29 06:40:38;;;;;;;19.27;15.90;;;10.80;86.50;;;;;;10945457;32;20294;-75
2022/12/29 06:46:42;;;;;;;30.23;21.55;;;10.90;86.50;;;;;;10941657;32;20023;-75
2022/12/29 06:52:45;;;;;;;24.58;19.33;;;10.90;86.90;;;;;;10944689;32;20023;-74
2022/12/29 06:58:46;;;;;;;26.05;20.60;;;10.90;87.10;;;;;;10940891;32;20389;-74
2022/12/29 07:04:48;;;;;;;22.45;15.80;;;10.90;86.80;;;;;;10944565;32;20015;-72
2022/12/29 07:10:50;;;;;;;18.98;13.57;;;10.80;86.60;;;;;;10944237;32;20033;-73
2022/12/29 07:16:52;;;;;;;16.55;12.35;;;10.80;86.70;;;;;;10930357;32;20041;-73
2022/12/29 07:22:54;;;;;;;16.75;13.60;;;10.50;86.70;;;;;;10943691;32;20325;-72
2022/12/29 07:29:04;;;;;;;16.20;11.63;;;10.20;87.00;;;;;;10943629;32;20015;-74
2022/12/29 07:35:07;;;;;;;17.48;13.18;;;10.10;87.20;;;;;;10942755;32;20019;-74
2022/12/29 07:41:09;;;;;;;19.40;14.68;;;10.10;87.30;;;;;;10929414;32;20349;-74
2022/12/29 07:47:11;;;;;;;21.23;15.73;;;10.40;87.00;;;;;;10929484;32;20019;-74
2022/12/29 07:53:14;;;;;;;18.62;15.80;;;10.50;86.70;;;;;;10938274;32;20093;-74
2022/12/29 07:59:16;;;;;;;21.58;17.23;;;10.50;87.10;;;;;;10942030;32;20352;-74
2022/12/29 08:05:18;;;;;;;21.10;16.52;;;10.60;87.50;;;;;;10942413;32;20042;-74
2022/12/29 08:11:20;;;;;;;18.37;15.68;;;10.60;87.40;;;;;;10942217;32;20023;-74
2022/12/29 08:17:22;;;;;;;23.35;14.30;;;10.40;87.30;;;;;;10929287;32;20329;-74
2022/12/29 08:23:24;;;;;;;12.50;10.98;;;10.30;87.40;;;;;;10930848;27;20353;-74
2022/12/29 08:29:26;;;;;;;27.20;22.20;;;10.20;87.40;;;;;;10927626;32;20425;-74
2022/12/29 08:35:28;;;;;;;21.90;18.55;;;10.30;87.60;;;;;;10941559;32;20050;-74
2022/12/29 08:41:31;;;;;;;22.98;17.85;;;10.60;87.70;;;;;;10928809;32;20046;-74
2022/12/29 08:47:33;;;;;;;19.58;16.10;;;10.90;87.60;;;;;;10947853;32;20023;-74
2022/12/29 08:53:35;;;;;;;20.50;17.55;;;11.10;87.20;;;;;;10935612;32;20027;-74
2022/12/29 08:59:37;;;;;;;23.25;18.00;;;11.20;87.20;;;;;;10948950;32;20023;-74
2022/12/29 09:05:39;;;;;;;21.00;16.70;;;11.30;87.00;;;;;;10948514;32;20015;-74
2022/12/29 09:11:43;;;;;;;23.15;19.80;;;11.30;87.30;;;;;;10930070;32;20030;-74
2022/12/29 09:17:45;;;;;;;19.23;14.00;;;11.40;87.50;;;;;;10948225;32;20045;-74
2022/12/29 09:23:48;;;;;;;16.87;12.32;;;11.60;87.50;;;;;;10947695;32;20054;-74
2022/12/29 09:29:50;;;;;;;19.30;14.02;;;11.60;87.40;;;;;;10934450;32;20015;-74
2022/12/29 09:35:55;;;;;;;14.73;11.57;;;11.60;87.60;;;;;;10947613;32;20348;-74
2022/12/29 09:42:04;;;;;;;15.68;11.77;;;11.50;87.40;;;;;;10947397;32;20019;-74
2022/12/29 09:48:23;;;;;;;13.85;10.55;;;11.30;87.50;;;;;;10947214;32;20046;-74
2022/12/29 09:54:38;;;;;;;;;;;11.20;87.80;;;;;;10945570;32;20065;-74
2022/12/29 10:00:52;;;;;;;21.42;16.25;;;11.10;87.90;;;;;;10911385;32;20304;-74
2022/12/29 10:07:08;;;;;;;17.50;13.62;;;11.30;88.20;;;;;;10942343;32;20382;-74
2022/12/29 10:13:37;;;;;;;13.30;9.98;;;11.60;87.90;;;;;;10944173;32;20053;-74
2022/12/29 10:20:01;;;;;;;12.77;9.05;;;11.50;87.40;;;;;;10942192;32;20042;-74
2022/12/29 10:26:08;;;;;;;17.92;13.35;;;11.50;88.00;;;;;;10932635;32;20054;-74
2022/12/29 10:32:20;;;;;;;18.60;12.60;;;11.70;88.10;;;;;;10941603;32;20419;-74
2022/12/29 10:38:28;;;;;;;18.20;14.65;;;11.80;88.00;;;;;;10945403;32;20019;-74
2022/12/29 10:44:33;;;;;;;22.30;16.30;;;11.90;88.20;;;;;;10945371;32;20322;-74
2022/12/29 10:50:36;;;;;;;18.98;14.27;;;12.00;88.00;;;;;;10944955;32;20038;-74
2022/12/29 10:56:53;;;;;;;17.75;12.85;;;11.90;88.40;;;;;;10944800;32;20022;-74
2022/12/29 11:03:13;;;;;;;15.48;12.85;;;11.90;88.50;;;;;;10944530;32;20019;-74
2022/12/29 11:09:37;;;;;;;16.73;12.23;;;11.90;88.60;;;;;;10939735;32;20325;-74
2022/12/29 11:15:42;;;;;;;19.08;13.62;;;12.10;88.70;;;;;;10944105;32;20019;-74
2022/12/29 11:21:44;;;;;;;12.45;9.82;;;12.20;88.50;;;;;;10943991;32;20026;-74
2022/12/29 11:28:16;;;;;;;18.62;14.25;;;12.20;88.30;;;;;;10943649;32;20046;-74
2022/12/29 11:34:23;;;;;;;15.05;12.57;;;12.10;88.60;;;;;;10944024;32;20015;-74
2022/12/29 11:40:47;;;;;;;14.48;11.63;;;12.00;88.50;;;;;;10943169;32;20042;-74
2022/12/29 11:46:52;;;;;;;12.13;8.63;;;11.90;88.70;;;;;;10929348;32;20302;-74
2022/12/29 11:53:07;;;;;;;17.50;13.57;;;12.10;88.60;;;;;;10942832;32;20058;-74
2022/12/29 11:59:37;;;;;;;12.15;9.48;;;12.20;88.90;;;;;;10942557;32;20329;-74
2022/12/29 12:05:52;;;;;;;15.00;11.15;;;12.20;88.20;;;;;;10928993;32;20019;-74
2022/12/29 12:11:55;;;;;;;13.73;10.05;;;12.20;88.60;;;;;;10942230;32;20046;-74
2022/12/29 12:18:08;;;;;;;19.70;14.48;;;12.20;88.70;;;;;;10928311;32;20018;-74
2022/12/29 12:24:30;;;;;;;13.68;11.05;;;12.20;88.90;;;;;;10937904;32;20427;-74
2022/12/29 12:30:48;;;;;;;18.80;14.98;;;12.40;88.70;;;;;;10942363;32;20046;-74
2022/12/29 12:36:53;;;;;;;18.37;12.32;;;12.50;88.60;;;;;;10923714;32;20048;-74
2022/12/29 12:43:25;;;;;;;15.38;13.05;;;12.50;88.50;;;;;;10937406;32;20393;-74
2022/12/29 12:50:05;;;;;;;20.50;16.10;;;12.40;88.50;;;;;;10941438;32;20057;-74
2022/12/29 12:56:33;;;;;;;17.30;14.07;;;12.30;88.90;;;;;;10941350;32;20019;-74
2022/12/29 13:02:54;;;;;;;21.08;15.70;;;12.40;88.80;;;;;;10925982;32;20023;-74
2022/12/29 13:09:11;;;;;;;20.27;14.95;;;12.50;88.90;;;;;;10928979;32;20037;-74
2022/12/29 13:16:01;;;;;;;24.75;19.67;;;12.50;89.20;;;;;;10927122;32;20038;-74
2022/12/29 13:22:15;;;;;;;17.65;14.45;;;12.40;89.10;;;;;;10788947;33;20032;-74
2022/12/29 13:28:22;;;;;;;19.52;14.77;;;12.60;88.90;;;;;;10787818;33;20407;-74
2022/12/29 13:34:58;;;;;;;19.77;16.25;;;12.40;89.10;;;;;;10793440;33;20381;-74
2022/12/29 13:41:05;;;;;;;16.30;11.75;;;12.40;89.10;;;;;;10794526;33;20288;-74
2022/12/29 13:47:25;;;;;;;14.80;11.63;;;12.40;89.10;;;;;;10781552;33;20036;-74
2022/12/29 13:53:54;;;;;;;17.37;12.98;;;12.30;89.30;;;;;;10791152;33;20071;-74
2022/12/29 14:00:21;;;;;;;15.68;9.98;;;12.20;89.30;;;;;;10946858;32;20042;-74
2022/12/29 14:06:36;;;;;;;15.45;11.23;;;12.00;89.10;;;;;;10942298;32;20069;-74
2022/12/29 14:12:41;;;;;;;14.98;11.25;;;11.80;89.20;;;;;;10929187;32;20061;-74
2022/12/29 14:18:44;;;;;;;12.02;9.40;;;11.70;89.20;;;;;;10932350;32;20031;-74
2022/12/29 14:24:47;;;;;;;14.68;10.63;;;11.70;89.30;;;;;;10944774;32;20045;-74
2022/12/29 14:30:53;;;;;;;14.50;12.00;;;11.90;89.20;;;;;;10929634;32;20038;-74
2022/12/29 14:37:03;;;;;;;18.70;13.95;;;12.00;89.10;;;;;;10941294;32;20388;-75
2022/12/29 14:43:26;;;;;;;13.13;10.13;;;12.00;89.00;;;;;;10944960;32;20309;-75
2022/12/29 14:49:31;;;;;;;12.85;9.93;;;11.90;89.00;;;;;;10940053;32;20406;-74
2022/12/29 14:55:43;;;;;;;16.02;11.68;;;11.80;89.20;;;;;;10944708;32;20397;-74
2022/12/29 15:02:15;;;;;;;14.30;11.12;;;11.70;89.20;;;;;;10943252;32;20081;-74
2022/12/29 15:08:23;;;;;;;20.83;15.65;;;11.70;89.40;;;;;;10943904;32;20011;-74
2022/12/29 15:14:29;;;;;;;20.35;15.27;;;11.70;89.30;;;;;;10930245;32;20329;-74
2022/12/29 15:20:36;;;;;;;21.37;14.65;;;11.80;89.20;;;;;;10943938;32;20329;-74
2022/12/29 15:26:57;;;;;;;16.20;13.27;;;12.00;89.10;;;;;;10492517;32;12054235;-74
2022/12/29 15:32:59;;;;;;;22.75;15.45;;;12.10;88.80;;;;;;10864773;32;20023;-74
2022/12/29 15:39:27;;;;;;;18.05;13.93;;;12.20;88.70;;;;;;10864552;32;20358;-74
2022/12/29 15:45:34;;;;;;;20.30;15.93;;;12.20;88.60;;;;;;10864090;32;20309;-74
2022/12/29 15:51:39;;;;;;;20.88;15.40;;;12.20;88.50;;;;;;10923953;32;20053;-74
2022/12/29 15:57:43;;;;;;;19.70;13.38;;;12.20;88.30;;;;;;10940723;32;20053;-74
2022/12/29 16:03:46;;;;;;;21.17;16.45;;;12.20;88.40;;;;;;10938936;32;20039;-74
2022/12/29 16:09:54;;;;;;;22.40;17.60;;;12.20;88.30;;;;;;10940271;32;20030;-73
2022/12/29 16:16:08;;;;;;;20.50;14.73;;;12.20;88.30;;;;;;10925138;32;20349;-73
2022/12/29 16:22:17;;;;;;;15.38;13.38;;;12.30;88.30;;;;;;10938504;27;20023;-73
2022/12/29 16:28:24;;;;;;;18.73;13.07;;;12.20;88.10;;;;;;10911539;32;20028;-73
2022/12/29 16:34:37;;;;;;;16.77;13.00;;;12.20;88.20;;;;;;10903282;32;20042;-73
2022/12/29 16:40:56;;;;;;;16.02;13.55;;;12.10;88.20;;;;;;10903517;32;20069;-73
2022/12/29 16:47:10;;;;;;;16.60;14.02;;;12.10;88.10;;;;;;10903154;32;20019;-73
2022/12/29 16:53:26;;;;;;;28.12;20.02;;;12.20;88.10;;;;;;10903838;32;20023;-73
2022/12/29 16:59:31;;;;;;;26.40;19.40;;;12.30;87.90;;;;;;10889758;32;20039;-73
2022/12/29 17:05:33;;;;;;;24.52;18.87;;;12.50;87.80;;;;;;10907298;32;20045;-73
2022/12/29 17:17:56;;;;;;;31.27;24.87;;;12.70;87.50;;;;;;10948353;32;20028;-73
2022/12/29 17:23:58;;;;;;;30.40;23.42;;;12.80;87.90;;;;;;10934090;32;20349;-73
2022/12/29 17:30:04;;;;;;;22.70;18.62;;;12.80;87.50;;;;;;10928896;32;20061;-73
2022/12/29 17:36:07;;;;;;;32.60;24.40;;;12.90;87.30;;;;;;10947599;32;20027;-73
2022/12/29 17:42:10;;;;;;;31.20;25.35;;;12.80;87.10;;;;;;10946443;32;20027;-73
2022/12/29 17:48:14;;;;;;;21.70;19.00;;;12.80;87.10;;;;;;10947477;32;20023;-74
2022/12/29 17:54:22;;;;;;;30.98;23.05;;;13.00;87.10;;;;;;10946733;32;20049;-74
2022/12/29 18:00:27;;;;;;;28.62;23.35;;;13.00;86.80;;;;;;10947042;32;20057;-74
2022/12/29 18:06:29;;;;;;;23.33;17.75;;;12.80;86.70;;;;;;10916280;32;20440;-74
2022/12/29 18:12:31;;;;;;;25.02;20.33;;;12.80;87.00;;;;;;10946473;32;20018;-73
2022/12/29 18:18:33;;;;;;;26.87;20.70;;;12.90;86.60;;;;;;10945883;32;20046;-73
2022/12/29 18:24:35;;;;;;;24.12;16.73;;;13.00;86.40;;;;;;10945703;32;20019;-73
2022/12/29 18:30:38;;;;;;;19.30;15.98;;;13.00;86.10;;;;;;10960597;32;20069;-73
2022/12/29 18:36:40;;;;;;;29.67;21.60;;;12.80;86.60;;;;;;10957006;32;20038;-73
2022/12/29 18:42:42;;;;;;;18.80;14.48;;;13.00;86.80;;;;;;10967029;32;20022;-73
2022/12/29 18:48:44;;;;;;;21.27;16.02;;;13.00;86.30;;;;;;10982969;32;20041;-72
2022/12/29 18:54:46;;;;;;;22.42;16.77;;;12.50;86.60;;;;;;10968706;32;20348;-72
2022/12/29 19:00:48;;;;;;;23.15;16.75;;;12.20;87.10;;;;;;10968639;32;20031;-72
2022/12/29 19:06:50;;;;;;;22.75;17.02;;;11.90;87.50;;;;;;10967333;32;20026;-72
2022/12/29 19:12:53;;;;;;;26.85;17.23;;;11.70;87.70;;;;;;10968475;32;20022;-72
2022/12/29 19:18:55;;;;;;;26.70;22.35;;;11.70;88.10;;;;;;10981688;32;20054;-72
2022/12/29 19:24:57;;;;;;;37.53;28.92;;;12.10;87.70;;;;;;10981466;32;20045;-71
2022/12/29 19:31:01;;;;;;;36.92;28.10;;;12.50;87.30;;;;;;10980712;32;20049;-72
2022/12/29 19:37:03;;;;;;;32.90;25.58;;;12.80;86.90;;;;;;10967646;32;20057;-72
2022/12/29 19:43:05;;;;;;;27.52;21.35;;;12.70;86.40;;;;;;10980877;32;20069;-72
2022/12/29 19:49:07;;;;;;;25.42;19.50;;;12.70;86.70;;;;;;10977318;32;20323;-73
2022/12/29 19:55:14;;;;;;;26.98;18.52;;;12.80;86.20;;;;;;10980375;32;20044;-73
2022/12/29 20:01:20;;;;;;;33.50;28.52;;;12.70;85.90;;;;;;10979888;32;20207;-73
2022/12/29 20:07:23;;;;;;;22.40;18.17;;;12.60;86.40;;;;;;10980148;32;20061;-73
2022/12/29 20:13:26;;;;;;;30.02;24.77;;;12.80;86.10;;;;;;10976131;32;20018;-73
2022/12/29 20:19:29;;;;;;;32.78;25.50;;;12.80;85.80;;;;;;10975803;32;20022;-72
2022/12/29 20:25:32;;;;;;;28.02;21.95;;;12.80;85.70;;;;;;10980541;32;20316;-73
2022/12/29 20:31:37;;;;;;;38.38;28.30;;;12.80;85.40;;;;;;10965714;32;20348;-73
2022/12/29 20:37:39;;;;;;;47.00;37.25;;;12.80;85.30;;;;;;10966076;32;20026;-74
2022/12/29 20:43:42;;;;;;;27.55;22.65;;;12.70;85.60;;;;;;10986477;32;20053;-73
2022/12/29 20:49:46;;;;;;;27.67;23.38;;;12.70;85.60;;;;;;10973812;32;20042;-73
2022/12/29 20:55:49;;;;;;;26.62;22.65;;;12.60;85.60;;;;;;10986908;32;20035;-72
2022/12/29 21:01:51;;;;;;;28.35;22.30;;;12.40;85.80;;;;;;10986746;32;20332;-73
2022/12/29 21:07:54;;;;;;;36.95;31.37;;;12.20;86.10;;;;;;10986650;32;20045;-73
2022/12/29 21:13:58;;;;;;;40.33;33.35;;;12.20;86.60;;;;;;10986542;32;20400;-73
2022/12/29 21:20:00;;;;;;;23.70;21.00;;;12.50;86.30;;;;;;10986112;32;20019;-72
2022/12/29 21:26:07;;;;;;;29.10;23.25;;;12.60;85.90;;;;;;10985726;32;20332;-73
2022/12/29 21:32:09;;;;;;;25.90;22.05;;;12.70;86.10;;;;;;10969397;32;20022;-72
2022/12/29 21:38:12;;;;;;;31.35;27.17;;;12.70;85.90;;;;;;10985306;32;20418;-72
2022/12/29 21:57:05;;;;;;;26.67;21.62;;;12.70;85.90;;;;;;10984917;32;20080;-72
2022/12/29 22:15:50;;;;;;;33.42;22.70;;;12.60;86.10;;;;;;10984204;32;20022;-72
2022/12/29 22:21:52;;;;;;;24.02;21.08;;;12.50;86.10;;;;;;10983850;32;20053;-72
2022/12/29 22:27:54;;;;;;;31.55;25.80;;;12.40;85.90;;;;;;10983682;32;20033;-72
2022/12/29 22:33:58;;;;;;;23.05;19.35;;;12.30;86.10;;;;;;10983383;32;20027;-72
2022/12/29 22:40:01;;;;;;;28.02;22.87;;;12.50;86.10;;;;;;10983216;32;20019;-72
2022/12/29 22:46:06;;;;;;;32.97;27.42;;;12.40;86.00;;;;;;10964939;32;20104;-72
2022/12/29 22:52:08;;;;;;;32.60;19.73;;;12.40;86.00;;;;;;10982739;32;20018;-72
2022/12/29 22:58:10;;;;;;;30.98;22.65;;;12.50;86.10;;;;;;10965711;32;20360;-72
2022/12/29 23:04:12;;;;;;;26.27;20.37;;;12.40;85.90;;;;;;10982332;32;20019;-72
2022/12/29 23:10:14;;;;;;;22.98;18.65;;;12.10;86.00;;;;;;10982162;32;20396;-72
2022/12/29 23:16:17;;;;;;;19.90;16.20;;;11.70;86.60;;;;;;10978762;32;20026;-72
2022/12/29 23:22:21;;;;;;;31.08;21.70;;;11.70;86.80;;;;;;10963738;32;20065;-72
2022/12/29 23:28:42;;;;;;;20.37;15.65;;;11.70;86.80;;;;;;10966928;32;20023;-72
2022/12/29 23:34:45;;;;;;;18.75;16.73;;;11.80;86.80;;;;;;10964358;32;20080;-71
2022/12/29 23:40:47;;;;;;;22.08;16.25;;;12.00;86.80;;;;;;10981055;32;20016;-72
2022/12/29 23:46:49;;;;;;;19.98;14.93;;;12.10;86.50;;;;;;10980800;32;20195;-72
2022/12/29 23:52:51;;;;;;;30.35;19.85;;;11.90;86.40;;;;;;10976478;32;20011;-72
2022/12/29 23:58:54;;;;;;;20.25;17.65;;;11.70;86.70;;;;;;10980489;32;20014;-71
